createdAt,value
2018-11-06T00:00:00.740Z,64.17
2018-11-06T00:02:29.478Z,64.00
2018-11-06T00:05:03.443Z,61.83
2018-11-06T00:07:32.091Z,68.97
2018-11-06T00:10:00.786Z,67.80
2018-11-06T00:12:29.607Z,70.13
2018-11-06T00:15:00.309Z,70.07
2018-11-06T00:17:29.217Z,73.90
2018-11-06T00:19:57.948Z,70.80
2018-11-06T00:22:26.618Z,71.43
2018-11-06T00:24:55.328Z,72.47
2018-11-06T00:27:24.156Z,65.50
2018-11-06T00:29:53.072Z,69.87
2018-11-06T00:32:21.843Z,68.60
2018-11-06T00:34:50.734Z,63.40
2018-11-06T00:37:19.393Z,62.13
2018-11-06T00:39:48.219Z,66.30
2018-11-06T00:42:16.888Z,63.10
2018-11-06T00:44:45.674Z,64.83
2018-11-06T00:47:14.469Z,64.27
2018-11-06T00:49:43.330Z,65.03
2018-11-06T00:52:12.064Z,68.30
2018-11-06T00:54:40.759Z,62.90
2018-11-06T00:57:09.641Z,70.07
2018-11-06T00:59:38.421Z,62.00
2018-11-06T01:02:07.252Z,55.17
2018-11-06T01:04:35.995Z,52.93
2018-11-06T01:07:05.064Z,56.53
2018-11-06T01:09:33.723Z,58.77
2018-11-06T01:12:02.420Z,59.70
2018-11-06T01:14:31.227Z,54.40
2018-11-06T01:17:00.006Z,51.60
2018-11-06T01:19:28.838Z,53.53
2018-11-06T01:21:57.588Z,60.07
2018-11-06T01:24:26.392Z,58.70
2018-11-06T01:26:55.033Z,56.97
2018-11-06T01:29:23.739Z,58.13
2018-11-06T01:31:52.541Z,61.50
2018-11-06T01:34:21.182Z,59.00
2018-11-06T01:36:49.924Z,59.73
2018-11-06T01:39:18.625Z,56.80
2018-11-06T01:41:47.337Z,51.27
2018-11-06T01:44:17.491Z,54.13
2018-11-06T01:46:47.060Z,56.03
2018-11-06T01:49:16.024Z,57.43
2018-11-06T01:51:45.015Z,55.73
2018-11-06T01:54:13.681Z,55.37
2018-11-06T01:56:42.537Z,61.73
2018-11-06T01:59:11.367Z,69.57
2018-11-06T02:01:40.076Z,59.20
2018-11-06T02:04:08.849Z,60.40
2018-11-06T02:06:37.716Z,58.87
2018-11-06T02:09:08.680Z,54.67
2018-11-06T02:11:37.383Z,52.77
2018-11-06T02:14:07.194Z,47.70
2018-11-06T02:16:35.924Z,52.47
2018-11-06T02:19:04.869Z,55.70
2018-11-06T02:21:33.591Z,47.73
2018-11-06T02:24:02.710Z,49.27
2018-11-06T02:26:32.400Z,53.20
2018-11-06T02:29:03.236Z,58.47
2018-11-06T02:31:31.900Z,47.97
2018-11-06T02:35:04.360Z,52.70
2018-11-06T02:37:32.979Z,53.93
2018-11-06T02:40:01.780Z,55.57
2018-11-06T02:42:30.439Z,50.33
2018-11-06T02:44:59.273Z,51.67
2018-11-06T02:47:27.921Z,48.87
2018-11-06T02:49:56.717Z,48.93
2018-11-06T02:52:25.416Z,49.67
2018-11-06T02:54:54.223Z,45.80
2018-11-06T02:57:22.991Z,44.93
2018-11-06T02:59:51.652Z,53.37
2018-11-06T03:02:20.344Z,51.47
2018-11-06T03:04:49.199Z,48.47
2018-11-06T03:07:17.903Z,53.90
2018-11-06T03:09:46.617Z,56.23
2018-11-06T03:12:15.333Z,67.83
2018-11-06T03:14:44.087Z,88.73
2018-11-06T03:17:12.796Z,80.70
2018-11-06T03:19:41.542Z,81.93
2018-11-06T03:22:10.348Z,70.83
2018-11-06T03:24:39.060Z,63.13
2018-11-06T03:27:07.777Z,66.83
2018-11-06T03:29:36.517Z,73.00
2018-11-06T03:32:05.768Z,63.83
2018-11-06T03:34:34.560Z,67.37
2018-11-06T03:37:03.257Z,66.37
2018-11-06T03:39:31.969Z,62.00
2018-11-06T03:42:00.668Z,58.37
2018-11-06T03:44:29.437Z,65.67
2018-11-06T03:46:58.245Z,52.87
2018-11-06T03:49:26.936Z,51.03
2018-11-06T03:51:55.687Z,56.80
2018-11-06T03:54:24.483Z,68.90
2018-11-06T03:56:53.274Z,52.67
2018-11-06T03:59:22.055Z,62.93
2018-11-06T04:01:50.780Z,53.23
2018-11-06T04:04:19.407Z,52.63
2018-11-06T04:06:48.218Z,42.03
2018-11-06T04:09:16.894Z,49.57
2018-11-06T04:11:45.553Z,41.53
2018-11-06T04:14:14.368Z,42.70
2018-11-06T04:16:43.064Z,48.50
2018-11-06T04:19:11.844Z,47.77
2018-11-06T04:21:41.293Z,47.40
2018-11-06T04:24:12.487Z,45.23
2018-11-06T04:26:41.162Z,46.37
2018-11-06T04:29:10.491Z,51.17
2018-11-06T04:31:39.944Z,46.20
2018-11-06T04:34:09.499Z,47.63
2018-11-06T04:36:38.268Z,43.53
2018-11-06T04:39:08.663Z,39.17
2018-11-06T04:41:37.511Z,44.47
2018-11-06T04:44:06.984Z,42.67
2018-11-06T04:46:35.699Z,43.30
2018-11-06T04:49:04.882Z,41.77
2018-11-06T04:51:33.579Z,43.97
2018-11-06T04:54:02.858Z,40.90
2018-11-06T04:56:32.152Z,41.30
2018-11-06T04:59:00.865Z,41.03
2018-11-06T05:01:29.663Z,40.60
2018-11-06T05:03:58.269Z,41.33
2018-11-06T05:06:26.996Z,47.83
2018-11-06T05:08:55.991Z,44.30
2018-11-06T05:11:24.886Z,44.77
2018-11-06T05:13:53.715Z,43.37
2018-11-06T05:16:22.460Z,45.20
2018-11-06T05:18:51.100Z,45.77
2018-11-06T05:21:19.699Z,48.70
2018-11-06T05:23:48.441Z,51.33
2018-11-06T05:26:17.306Z,86.67
2018-11-06T05:28:46.007Z,83.10
2018-11-06T05:31:14.656Z,61.80
2018-11-06T05:33:43.580Z,69.13
2018-11-06T05:36:12.196Z,59.37
2018-11-06T05:38:40.784Z,45.30
2018-11-06T05:41:09.697Z,52.93
2018-11-06T05:43:39.034Z,53.17
2018-11-06T05:46:07.794Z,50.40
2018-11-06T05:48:36.582Z,50.13
2018-11-06T05:51:05.768Z,65.10
2018-11-06T05:53:34.660Z,96.17
2018-11-06T05:56:03.456Z,67.90
2018-11-06T05:58:32.128Z,66.47
2018-11-06T06:01:00.967Z,58.13
2018-11-06T06:03:29.592Z,53.77
2018-11-06T06:05:58.321Z,54.23
2018-11-06T06:08:27.292Z,46.73
2018-11-06T06:11:06.785Z,47.67
2018-11-06T06:13:35.597Z,48.87
2018-11-06T06:16:04.480Z,46.77
2018-11-06T06:18:33.316Z,45.67
2018-11-06T06:21:02.098Z,47.83
2018-11-06T06:23:30.875Z,50.63
2018-11-06T06:25:59.657Z,76.37
2018-11-06T06:28:28.377Z,54.13
2018-11-06T06:30:57.079Z,44.67
2018-11-06T06:33:25.808Z,42.57
2018-11-06T06:35:54.492Z,40.83
2018-11-06T06:38:23.199Z,38.97
2018-11-06T06:40:52.151Z,45.33
2018-11-06T06:43:20.840Z,46.67
2018-11-06T06:45:49.539Z,54.60
2018-11-06T06:48:18.436Z,46.73
2018-11-06T06:50:47.139Z,44.60
2018-11-06T06:53:15.813Z,41.90
2018-11-06T07:02:44.447Z,46.30
2018-11-06T07:05:14.552Z,49.50
2018-11-06T07:07:44.160Z,47.87
2018-11-06T07:10:14.753Z,48.83
2018-11-06T07:12:44.516Z,71.70
2018-11-06T07:15:14.532Z,49.73
2018-11-06T07:17:44.122Z,49.80
2018-11-06T07:20:15.367Z,53.27
2018-11-06T07:22:44.248Z,46.80
2018-11-06T07:25:13.796Z,42.10
2018-11-06T07:27:43.484Z,41.60
2018-11-06T07:30:17.584Z,46.53
2018-11-06T07:32:46.742Z,52.50
2018-11-06T07:35:16.428Z,46.43
2018-11-06T07:37:45.700Z,52.90
2018-11-06T07:40:15.943Z,50.77
2018-11-06T07:42:44.707Z,45.23
2018-11-06T07:45:14.599Z,43.93
2018-11-06T07:47:43.596Z,42.37
2018-11-06T07:50:13.086Z,43.83
2018-11-06T07:52:41.992Z,44.73
2018-11-06T07:55:13.015Z,45.00
2018-11-06T07:57:41.707Z,43.13
2018-11-06T08:00:18.904Z,42.30
2018-11-06T08:02:48.313Z,43.33
2018-11-06T08:05:17.296Z,44.13
2018-11-06T08:07:47.117Z,44.67
2018-11-06T08:10:15.916Z,42.07
2018-11-06T08:12:46.133Z,42.47
2018-11-06T08:15:15.051Z,41.20
2018-11-06T08:17:44.874Z,40.40
2018-11-06T08:20:14.019Z,38.23
2018-11-06T08:22:42.789Z,36.93
2018-11-06T08:26:35.928Z,38.10
2018-11-06T08:29:04.859Z,37.40
2018-11-06T08:31:33.810Z,38.27
2018-11-06T08:34:02.427Z,36.93
2018-11-06T08:36:31.281Z,38.53
2018-11-06T08:39:00.028Z,37.03
2018-11-06T08:41:28.678Z,35.57
2018-11-06T08:43:57.404Z,35.80
2018-11-06T08:46:26.059Z,35.90
2018-11-06T08:48:54.849Z,36.53
2018-11-06T08:51:23.553Z,35.50
2018-11-06T08:53:52.325Z,34.53
2018-11-06T08:56:21.141Z,34.73
2018-11-06T08:58:49.954Z,34.67
2018-11-06T09:01:18.627Z,33.67
2018-11-06T09:03:47.339Z,33.43
2018-11-06T09:06:16.107Z,31.23
2018-11-06T09:08:45.088Z,32.70
2018-11-06T09:11:13.944Z,33.93
2018-11-06T09:13:42.587Z,32.20
2018-11-06T09:16:11.432Z,34.63
2018-11-06T09:18:40.198Z,32.87
2018-11-06T09:21:08.961Z,33.03
2018-11-06T09:23:37.632Z,32.20
2018-11-06T09:26:06.455Z,33.17
2018-11-06T09:28:35.195Z,30.47
2018-11-06T09:31:04.277Z,30.27
2018-11-06T09:33:32.893Z,30.67
2018-11-06T09:36:01.580Z,31.03
2018-11-06T09:38:30.388Z,31.63
2018-11-06T09:40:59.059Z,30.97
2018-11-06T09:43:27.963Z,29.03
2018-11-06T09:45:56.631Z,29.93
2018-11-06T09:48:25.647Z,30.33
2018-11-06T09:50:54.297Z,31.50
2018-11-06T09:53:22.984Z,31.27
2018-11-06T09:55:51.822Z,28.47
2018-11-06T09:58:20.961Z,29.73
2018-11-06T10:00:49.687Z,30.30
2018-11-06T10:03:18.335Z,30.80
2018-11-06T10:05:47.044Z,29.90
2018-11-06T10:08:16.161Z,29.23
2018-11-06T10:10:45.056Z,28.27
2018-11-06T10:13:13.803Z,28.47
2018-11-06T10:15:42.563Z,27.37
2018-11-06T10:18:11.167Z,28.30
2018-11-06T10:20:39.997Z,28.13
2018-11-06T10:23:08.664Z,28.03
2018-11-06T10:25:37.456Z,27.23
2018-11-06T10:28:06.267Z,27.57
2018-11-06T10:30:35.095Z,28.87
2018-11-06T10:33:03.816Z,28.40
2018-11-06T10:35:32.506Z,26.90
2018-11-06T10:38:01.220Z,26.43
2018-11-06T10:40:29.988Z,26.53
2018-11-06T10:42:58.660Z,26.80
2018-11-06T10:45:27.333Z,28.20
2018-11-06T10:47:56.128Z,25.77
2018-11-06T10:50:24.724Z,26.37
2018-11-06T10:52:53.395Z,26.30
2018-11-06T10:55:22.409Z,24.90
2018-11-06T10:57:51.003Z,25.53
2018-11-06T11:00:24.984Z,25.00
2018-11-06T11:02:58.940Z,25.37
2018-11-06T11:05:28.902Z,26.27
2018-11-06T11:07:57.691Z,25.87
2018-11-06T11:10:26.398Z,25.87
2018-11-06T11:12:55.039Z,25.37
2018-11-06T11:15:23.957Z,24.53
2018-11-06T11:17:52.675Z,25.13
2018-11-06T11:20:21.407Z,24.10
2018-11-06T11:22:50.056Z,22.80
2018-11-06T11:25:18.683Z,24.97
2018-11-06T11:27:47.600Z,23.97
2018-11-06T11:30:17.060Z,23.80
2018-11-06T11:32:47.204Z,24.17
2018-11-06T11:35:16.111Z,25.07
2018-11-06T11:37:45.078Z,24.13
2018-11-06T11:40:14.913Z,22.40
2018-11-06T11:42:43.895Z,24.07
2018-11-06T11:45:13.617Z,23.60
2018-11-06T11:47:42.331Z,23.67
2018-11-06T11:50:12.521Z,23.53
2018-11-06T11:52:41.414Z,23.83
2018-11-06T11:55:10.303Z,23.93
2018-11-06T11:57:39.743Z,22.53
2018-11-06T12:00:10.946Z,24.40
2018-11-06T12:02:39.620Z,23.70
2018-11-06T12:05:09.017Z,23.40
2018-11-06T12:07:37.963Z,23.17
2018-11-06T12:10:08.024Z,23.27
2018-11-06T12:12:36.759Z,21.63
2018-11-06T12:15:07.719Z,21.93
2018-11-06T12:17:36.357Z,22.90
2018-11-06T12:20:05.221Z,23.57
2018-11-06T12:22:33.924Z,26.17
2018-11-06T12:25:03.083Z,24.23
2018-11-06T12:27:31.569Z,22.07
2018-11-06T12:30:00.373Z,21.97
2018-11-06T12:32:29.204Z,22.70
2018-11-06T12:34:57.857Z,20.77
2018-11-06T12:37:26.496Z,19.83
2018-11-06T12:39:55.322Z,20.43
2018-11-06T12:42:24.034Z,20.27
2018-11-06T12:44:52.906Z,22.13
2018-11-06T12:47:21.679Z,21.23
2018-11-06T12:49:50.349Z,21.57
2018-11-06T12:52:19.168Z,21.27
2018-11-06T12:54:47.944Z,22.70
2018-11-06T12:57:16.778Z,22.40
2018-11-06T12:59:45.530Z,23.40
2018-11-06T13:02:14.236Z,23.10
2018-11-06T13:04:43.089Z,22.77
2018-11-06T13:07:11.797Z,23.18
2018-11-06T13:09:40.453Z,22.52
2018-11-06T13:12:09.253Z,22.67
2018-11-06T13:14:37.952Z,22.73
2018-11-06T13:17:06.983Z,22.37
2018-11-06T13:19:35.722Z,22.05
2018-11-06T13:22:05.125Z,21.47
2018-11-06T13:24:33.783Z,21.23
2018-11-06T13:27:02.666Z,20.92
2018-11-06T13:29:31.413Z,20.37
2018-11-06T13:32:00.051Z,19.83
2018-11-06T13:34:28.888Z,19.00
2018-11-06T13:36:57.491Z,20.93
2018-11-06T13:39:26.099Z,19.23
2018-11-06T13:41:55.015Z,19.80
2018-11-06T13:44:24.061Z,18.93
2018-11-06T13:46:52.404Z,20.60
2018-11-06T13:49:21.152Z,18.35
2018-11-06T13:51:49.828Z,19.53
2018-11-06T13:54:18.647Z,20.60
2018-11-06T13:56:47.316Z,19.43
2018-11-06T13:59:16.038Z,18.83
2018-11-06T14:01:44.772Z,19.57
2018-11-06T14:04:13.493Z,19.42
2018-11-06T14:06:42.183Z,18.93
2018-11-06T14:09:11.633Z,19.15
2018-11-06T14:11:40.773Z,20.12
2018-11-06T14:14:09.554Z,20.43
2018-11-06T14:16:38.405Z,20.92
2018-11-06T14:19:07.137Z,22.97
2018-11-06T14:21:36.015Z,22.13
2018-11-06T14:24:04.803Z,21.93
2018-11-06T14:26:33.585Z,21.50
2018-11-06T14:29:02.390Z,20.47
2018-11-06T14:31:31.074Z,20.37
2018-11-06T14:33:59.808Z,19.27
2018-11-06T14:36:28.528Z,20.80
2018-11-06T14:38:57.216Z,20.37
2018-11-06T14:41:25.993Z,21.27
2018-11-06T14:43:54.794Z,19.40
2018-11-06T14:46:23.440Z,20.53
2018-11-06T14:48:52.124Z,22.27
2018-11-06T14:51:20.845Z,21.87
2018-11-06T14:53:49.644Z,22.10
2018-11-06T14:56:18.299Z,20.77
2018-11-06T14:58:47.210Z,22.23
2018-11-06T15:01:15.880Z,22.50
2018-11-06T15:03:44.692Z,21.70
2018-11-06T15:06:13.473Z,22.50
2018-11-06T15:08:42.152Z,23.53
2018-11-06T15:11:10.821Z,24.77
2018-11-06T15:13:39.834Z,24.77
2018-11-06T15:16:08.505Z,23.83
2018-11-06T15:18:37.164Z,26.73
2018-11-06T15:21:06.511Z,24.83
2018-11-06T15:23:35.177Z,27.03
2018-11-06T15:26:04.091Z,26.73
2018-11-06T15:28:32.755Z,26.50
2018-11-06T15:31:01.416Z,25.20
2018-11-06T15:33:30.298Z,25.50
2018-11-06T15:35:59.119Z,27.03
2018-11-06T15:38:27.912Z,27.00
2018-11-06T15:40:56.738Z,25.53
2018-11-06T15:43:25.592Z,27.03
2018-11-06T15:45:54.251Z,26.30
2018-11-06T15:48:22.930Z,25.97
2018-11-06T15:50:51.747Z,26.83
2018-11-06T15:53:20.631Z,26.63
2018-11-06T15:55:49.312Z,28.03
2018-11-06T15:58:18.035Z,26.30
2018-11-06T16:00:46.823Z,27.30
2018-11-06T16:03:15.689Z,26.57
2018-11-06T16:05:44.360Z,27.50
2018-11-06T16:08:13.086Z,27.80
2018-11-06T16:10:41.772Z,28.80
2018-11-06T16:13:10.525Z,29.57
2018-11-06T16:15:39.257Z,30.50
2018-11-06T16:18:07.876Z,29.30
2018-11-06T16:20:36.676Z,30.57
2018-11-06T16:23:05.403Z,31.40
2018-11-06T16:25:34.049Z,33.23
2018-11-06T16:28:02.840Z,33.17
2018-11-06T16:30:31.572Z,32.23
2018-11-06T16:33:00.338Z,32.97
2018-11-06T16:35:29.396Z,32.37
2018-11-06T16:37:58.189Z,32.47
2018-11-06T16:40:26.872Z,33.97
2018-11-06T16:42:55.679Z,38.30
2018-11-06T16:45:24.420Z,41.73
2018-11-06T16:47:53.664Z,46.60
2018-11-06T16:50:22.956Z,39.47
2018-11-06T16:52:51.652Z,35.33
2018-11-06T16:55:20.872Z,36.63
2018-11-06T16:57:49.835Z,37.13
2018-11-06T17:00:21.338Z,39.53
2018-11-06T17:02:50.229Z,39.73
2018-11-06T17:05:19.012Z,43.53
2018-11-06T17:07:48.472Z,41.70
2018-11-06T17:10:17.890Z,41.70
2018-11-06T17:12:47.093Z,41.40
2018-11-06T17:15:18.315Z,40.23
2018-11-06T17:17:48.107Z,40.80
2018-11-06T17:20:17.118Z,40.13
2018-11-06T17:22:46.059Z,41.50
2018-11-06T17:25:16.307Z,44.17
2018-11-06T17:27:45.305Z,41.10
2018-11-06T17:30:15.319Z,39.27
2018-11-06T17:32:44.337Z,41.07
2018-11-06T17:35:15.012Z,39.00
2018-11-06T17:37:44.152Z,39.43
2018-11-06T17:40:16.209Z,36.13
2018-11-06T17:42:45.459Z,37.80
2018-11-06T17:45:19.804Z,36.77
2018-11-06T17:47:48.622Z,33.93
2018-11-06T17:50:17.818Z,36.30
2018-11-06T17:52:46.903Z,35.00
2018-11-06T17:55:17.107Z,35.03
2018-11-06T17:57:45.999Z,35.13
2018-11-06T18:00:17.847Z,34.90
2018-11-06T18:02:47.096Z,36.33
2018-11-06T18:05:16.684Z,35.80
2018-11-06T18:07:45.791Z,37.30
2018-11-06T18:10:15.915Z,37.50
2018-11-06T18:12:45.100Z,36.93
2018-11-06T18:15:13.973Z,39.17
2018-11-06T18:17:43.183Z,37.43
2018-11-06T18:20:13.112Z,38.37
2018-11-06T18:22:42.602Z,39.63
2018-11-06T18:25:12.420Z,40.27
2018-11-06T18:27:41.364Z,38.87
2018-11-06T18:30:12.646Z,39.77
2018-11-06T18:32:42.404Z,43.77
2018-11-06T18:35:12.586Z,40.93
2018-11-06T18:37:41.414Z,42.80
2018-11-06T18:40:14.009Z,42.93
2018-11-06T18:42:44.084Z,42.33
2018-11-06T18:45:13.352Z,43.50
2018-11-06T18:47:42.290Z,44.83
2018-11-06T18:50:12.665Z,47.80
2018-11-06T18:52:42.582Z,46.37
2018-11-06T18:55:11.312Z,47.30
2018-11-06T18:57:40.319Z,50.30
2018-11-06T19:00:12.643Z,50.70
2018-11-06T19:02:42.451Z,57.03
2018-11-06T19:05:12.356Z,53.43
2018-11-06T19:07:41.149Z,52.47
2018-11-06T19:10:11.561Z,55.00
2018-11-06T19:12:40.455Z,54.53
2018-11-06T19:15:12.152Z,53.57
2018-11-06T19:17:41.242Z,54.50
2018-11-06T19:20:11.020Z,56.27
2018-11-06T19:22:39.952Z,56.50
2018-11-06T19:25:09.829Z,54.77
2018-11-06T19:27:38.724Z,56.83
2018-11-06T19:30:16.195Z,56.90
2018-11-06T19:32:44.858Z,56.27
2018-11-06T19:35:14.390Z,53.97
2018-11-06T19:37:45.381Z,54.63
2018-11-06T19:40:15.884Z,53.53
2018-11-06T19:42:46.481Z,54.40
2018-11-06T19:45:16.791Z,52.50
2018-11-06T19:47:47.211Z,53.30
2018-11-06T19:50:19.061Z,53.07
2018-11-06T19:52:50.518Z,54.70
2018-11-06T19:55:20.402Z,55.83
2018-11-06T19:57:49.553Z,58.50
2018-11-06T20:00:20.954Z,53.93
2018-11-06T20:02:51.391Z,55.27
2018-11-06T20:05:20.927Z,57.17
2018-11-06T20:07:51.388Z,59.37
2018-11-06T20:10:21.955Z,57.93
2018-11-06T20:12:52.798Z,58.80
2018-11-06T20:15:22.996Z,59.93
2018-11-06T20:17:55.193Z,61.13
2018-11-06T20:20:29.530Z,64.00
2018-11-06T20:22:58.946Z,61.43
2018-11-06T20:25:28.243Z,62.20
2018-11-06T20:27:56.961Z,62.43
2018-11-06T20:30:26.636Z,63.50
2018-11-06T20:32:55.639Z,61.53
2018-11-06T20:35:24.282Z,63.27
2018-11-06T20:37:53.278Z,68.17
2018-11-06T20:40:23.414Z,63.87
2018-11-06T20:42:52.306Z,64.43
2018-11-06T20:45:21.497Z,66.20
2018-11-06T20:47:50.162Z,63.37
2018-11-06T20:50:21.836Z,65.47
2018-11-06T20:52:50.676Z,70.00
2018-11-06T20:55:19.651Z,79.40
2018-11-06T20:57:48.314Z,67.90
2018-11-06T21:00:30.266Z,67.77
2018-11-06T21:03:01.347Z,69.93
2018-11-06T21:05:30.176Z,69.60
2018-11-06T21:07:59.088Z,70.03
2018-11-06T21:10:29.548Z,68.77
2018-11-06T21:12:58.227Z,67.70
2018-11-06T21:15:27.211Z,71.67
2018-11-06T21:17:56.297Z,69.17
2018-11-06T21:20:24.942Z,70.63
2018-11-06T21:22:53.791Z,70.13
2018-11-06T21:25:24.613Z,72.60
2018-11-06T21:27:53.305Z,71.63
2018-11-06T21:30:22.431Z,72.27
2018-11-06T21:32:52.327Z,71.80
2018-11-06T21:35:21.222Z,71.07
2018-11-06T21:37:50.147Z,68.57
2018-11-06T21:40:20.435Z,68.80
2018-11-06T21:42:49.406Z,70.53
2018-11-06T21:45:18.667Z,67.90
2018-11-06T21:47:48.573Z,74.60
2018-11-06T21:50:17.921Z,69.60
2018-11-06T21:52:46.631Z,65.23
2018-11-06T21:55:16.665Z,69.93
2018-11-06T21:57:45.305Z,66.40
2018-11-06T22:00:15.675Z,67.60
2018-11-06T22:02:44.534Z,67.13
2018-11-06T22:05:14.446Z,63.47
2018-11-06T22:07:43.423Z,67.57
2018-11-06T22:10:13.459Z,62.83
2018-11-06T22:12:43.123Z,67.40
2018-11-06T22:15:12.967Z,67.07
2018-11-06T22:17:41.855Z,63.97
2018-11-06T22:20:12.691Z,64.43
2018-11-06T22:22:42.192Z,67.23
2018-11-06T22:25:11.022Z,63.30
2018-11-06T22:27:39.878Z,68.27
2018-11-06T22:30:10.624Z,65.43
2018-11-06T22:32:39.934Z,65.97
2018-11-06T22:35:10.189Z,68.50
2018-11-06T22:37:38.918Z,70.40
2018-11-06T22:40:08.428Z,65.03
2018-11-06T22:42:37.572Z,65.80
2018-11-06T22:45:08.068Z,65.97
2018-11-06T22:47:36.720Z,67.53
2018-11-06T22:50:06.872Z,63.40
2018-11-06T22:52:35.630Z,66.33
2018-11-06T22:55:04.630Z,66.17
2018-11-06T22:57:33.273Z,69.23
2018-11-06T23:00:02.073Z,68.07
2018-11-06T23:02:30.795Z,71.50
2018-11-06T23:04:59.459Z,69.20
2018-11-06T23:07:33.577Z,72.03
2018-11-06T23:10:02.256Z,69.83
2018-11-06T23:12:31.075Z,68.77
2018-11-06T23:14:59.695Z,68.43
2018-11-06T23:17:28.411Z,68.73
2018-11-06T23:19:57.088Z,73.43
2018-11-06T23:22:26.101Z,75.03
2018-11-06T23:24:55.016Z,70.57
2018-11-06T23:27:23.534Z,71.87
2018-11-06T23:29:52.316Z,71.20
2018-11-06T23:32:21.060Z,70.67
2018-11-06T23:34:49.705Z,70.63
2018-11-06T23:37:18.508Z,69.27
2018-11-06T23:39:47.179Z,70.57
2018-11-06T23:42:15.840Z,71.20
2018-11-06T23:44:44.525Z,69.17
2018-11-06T23:47:13.262Z,68.47
2018-11-06T23:49:41.944Z,68.50
2018-11-06T23:52:10.591Z,69.20
2018-11-06T23:54:39.315Z,70.43
2018-11-06T23:57:08.019Z,70.80
2018-11-06T23:59:36.784Z,66.13
